Skagway, AK

4:16 PM AKST on December 22, 2014 (GMT -0900)
Gustavus | Change Station
CLOSE
Current Station
Airport
Location: Gustavus,
Elevation: 30 ft
Nearby Weather Stations

Elev 30 ft 58.43 °N, 135.71 °W | Updated 20 minutes ago

Mostly Cloudy
Mostly Cloudy
39 °F
Feels Like 35 °F
N
6
Wind Variable Wind from SSE

Today
High -- | Low -- °F
--% Chance of Precip.
Yesterday
High -- | Low -- °F
Precip. -- in
8:58 AM 3:01 PM
New Moon, 1% visible
Pressure 30.06 in
Visibility 10.0 miles
Clouds Mostly Cloudy 6000 ft
Mostly Cloudy 12000 ft
Windchill 35 °F
Dew Point 36 °F
Humidity 87%
Rainfall 0.00 in
Snow Depth Not available.
UV 0 out of 12
Pollen Not available.
Air Quality Not available.
Flu Activity Not available.
METAR PAGS 230056Z AUTO 15005KT 10SM BKN060 BKN120 04/02 A3006 RMK AO1 PNO

More Conditions Fewer Conditions

Pressure 30.06 in
Visibility 10.0 miles
Clouds Mostly Cloudy 6000 ft
Mostly Cloudy 12000 ft
Windchill 35 °F
Dew Point 36 °F
Humidity 87%
Rainfall 0.00 in
Snow Depth Not available.
UV 0 out of 12
Pollen Not available.
Air Quality Not available.
Flu Activity Not available.
METAR PAGS 230056Z AUTO 15005KT 10SM BKN060 BKN120 04/02 A3006 RMK AO1 PNO

More Conditions Fewer Conditions

10-Day Weather Forecast

Almanac

Astronomy

Dec. 22, 2014 Rise Set
Actual Time
Civil Twilight
Nautical Twilight
Astronomical Twilight
Moon
Length of Visible Light
Length of Day
Tomorrow will be .
, % of the Moon is Illuminated

Today's Extremes

State Highs State Lows

Community

WunderPhotos

Upload Photos

1,779,745 photos uploaded!

WunderBlogs® & News

Nearby

Air Quality

  Air Quality AQ Index Pollutant
Not available.

Snow Depth

Station Depth Elevation

Earthquake Activity

City Distance Mag. Time & Date
Minimum magnitude displayed is 2.5.

Coastal Water Temperatures

Place Temperature

Nearby Weather Stations